createdAt,value
2018-10-06T00:00:38.582Z,32.93
2018-10-06T00:03:07.310Z,31.33
2018-10-06T00:05:35.996Z,33.67
2018-10-06T00:08:04.920Z,30.60
2018-10-06T00:10:33.615Z,34.40
2018-10-06T00:13:02.388Z,30.23
2018-10-06T00:15:31.267Z,27.00
2018-10-06T00:18:00.167Z,32.17
2018-10-06T00:20:28.875Z,32.83
2018-10-06T00:22:58.313Z,35.27
2018-10-06T00:25:27.079Z,34.60
2018-10-06T00:27:56.007Z,31.43
2018-10-06T00:30:24.825Z,36.63
2018-10-06T00:32:53.447Z,34.77
2018-10-06T00:35:22.277Z,34.93
2018-10-06T00:37:51.782Z,34.50
2018-10-06T00:40:20.582Z,39.43
2018-10-06T00:42:49.217Z,35.93
2018-10-06T00:45:17.919Z,35.40
2018-10-06T00:47:46.905Z,36.43
2018-10-06T00:50:15.623Z,36.57
2018-10-06T00:52:44.342Z,33.60
2018-10-06T00:55:13.074Z,36.73
2018-10-06T00:57:41.836Z,38.03
2018-10-06T01:00:10.990Z,39.80
2018-10-06T01:02:39.717Z,36.40
2018-10-06T01:05:08.736Z,39.33
2018-10-06T01:07:37.427Z,38.67
2018-10-06T01:10:06.178Z,46.50
2018-10-06T01:12:34.867Z,41.73
2018-10-06T01:15:03.598Z,39.20
2018-10-06T01:17:32.356Z,44.23
2018-10-06T01:20:01.096Z,43.83
2018-10-06T01:22:29.864Z,43.90
2018-10-06T01:24:58.552Z,42.97
2018-10-06T01:27:27.478Z,39.50
2018-10-06T01:29:56.365Z,39.10
2018-10-06T01:32:25.054Z,41.50
2018-10-06T01:34:53.911Z,39.33
2018-10-06T01:37:22.639Z,42.33
2018-10-06T01:39:51.406Z,47.30
2018-10-06T01:42:20.154Z,39.40
2018-10-06T01:44:48.854Z,41.30
2018-10-06T01:47:17.580Z,40.60
2018-10-06T01:49:46.227Z,41.77
2018-10-06T01:52:15.091Z,38.97
2018-10-06T01:54:43.797Z,39.10
2018-10-06T01:57:12.919Z,37.53
2018-10-06T01:59:41.591Z,45.60
2018-10-06T02:02:11.077Z,37.30
2018-10-06T02:04:40.084Z,38.97
2018-10-06T02:07:08.693Z,43.00
2018-10-06T02:09:37.422Z,38.23
2018-10-06T02:12:06.297Z,36.70
2018-10-06T02:14:35.007Z,41.50
2018-10-06T02:17:04.475Z,38.77
2018-10-06T02:19:33.531Z,43.13
2018-10-06T02:22:02.255Z,36.53
2018-10-06T02:24:31.043Z,33.80
2018-10-06T02:26:59.851Z,37.87
2018-10-06T02:29:28.554Z,33.20
2018-10-06T02:32:00.754Z,33.90
2018-10-06T02:34:29.533Z,39.07
2018-10-06T02:36:58.323Z,34.37
2018-10-06T02:39:27.096Z,35.73
2018-10-06T02:41:55.735Z,39.77
2018-10-06T02:44:24.390Z,39.87
2018-10-06T02:46:53.153Z,44.10
2018-10-06T02:49:21.846Z,41.53
2018-10-06T02:51:50.703Z,42.70
2018-10-06T02:54:19.387Z,39.43
2018-10-06T02:56:48.064Z,41.80
2018-10-06T02:59:17.551Z,42.60
2018-10-06T03:01:46.276Z,45.73
2018-10-06T03:04:15.182Z,47.33
2018-10-06T03:06:43.892Z,50.07
2018-10-06T03:09:12.768Z,52.60
2018-10-06T03:11:41.723Z,49.77
2018-10-06T03:14:10.618Z,43.90
2018-10-06T03:16:39.343Z,49.27
2018-10-06T03:19:08.247Z,47.87
2018-10-06T03:21:37.148Z,54.90
2018-10-06T03:24:05.915Z,46.60
2018-10-06T03:26:34.650Z,52.20
2018-10-06T03:29:03.358Z,48.63
2018-10-06T03:31:32.177Z,48.93
2018-10-06T03:34:00.889Z,42.67
2018-10-06T03:36:29.633Z,44.80
2018-10-06T03:38:58.283Z,47.13
2018-10-06T03:41:26.988Z,49.40
2018-10-06T03:43:55.872Z,42.17
2018-10-06T03:46:24.615Z,39.10
2018-10-06T03:48:53.306Z,51.10
2018-10-06T03:51:22.567Z,42.70
2018-10-06T03:53:51.338Z,42.87
2018-10-06T03:56:20.101Z,44.47
2018-10-06T03:58:49.146Z,39.83
2018-10-06T04:01:18.036Z,42.93
2018-10-06T04:03:47.113Z,41.03
2018-10-06T04:06:15.757Z,42.13
2018-10-06T04:08:44.426Z,39.33
2018-10-06T04:11:13.174Z,39.27
2018-10-06T04:13:41.992Z,46.87
2018-10-06T04:16:10.840Z,46.07
2018-10-06T04:18:39.622Z,45.47
2018-10-06T04:21:08.436Z,50.67
2018-10-06T04:23:37.369Z,47.13
2018-10-06T04:26:06.317Z,43.50
2018-10-06T04:28:35.067Z,41.80
2018-10-06T04:31:03.890Z,53.80
2018-10-06T04:33:32.845Z,48.13
2018-10-06T04:36:01.740Z,43.57
2018-10-06T04:38:31.488Z,45.83
2018-10-06T04:41:00.256Z,46.57
2018-10-06T04:43:30.500Z,43.87
2018-10-06T04:46:01.476Z,43.50
2018-10-06T04:48:31.082Z,48.10
2018-10-06T04:51:01.450Z,40.20
2018-10-06T04:53:31.496Z,42.60
2018-10-06T04:56:01.180Z,43.43
2018-10-06T04:58:31.036Z,39.97
2018-10-06T05:01:00.379Z,41.57
2018-10-06T05:03:30.479Z,39.87
2018-10-06T05:06:00.288Z,40.37
2018-10-06T05:08:31.425Z,42.07
2018-10-06T05:11:01.803Z,42.73
2018-10-06T05:13:30.760Z,47.50
2018-10-06T05:15:59.531Z,41.80
2018-10-06T05:18:29.920Z,47.27
2018-10-06T05:20:59.854Z,48.37
2018-10-06T05:23:29.671Z,54.10
2018-10-06T05:25:59.476Z,61.90
2018-10-06T05:28:28.448Z,59.40
2018-10-06T05:30:57.288Z,54.23
2018-10-06T05:33:27.131Z,59.37
2018-10-06T05:35:56.026Z,56.93
2018-10-06T05:38:29.486Z,53.50
2018-10-06T05:40:59.009Z,58.80
2018-10-06T05:43:28.431Z,55.10
2018-10-06T05:45:57.850Z,54.80
2018-10-06T05:48:28.729Z,65.97
2018-10-06T05:50:57.587Z,62.30
2018-10-06T05:53:28.032Z,54.27
2018-10-06T05:55:56.927Z,47.80
2018-10-06T05:58:26.375Z,60.47
2018-10-06T06:00:56.222Z,67.13
2018-10-06T06:03:25.898Z,58.23
2018-10-06T06:05:56.695Z,60.53
2018-10-06T06:08:26.591Z,54.37
2018-10-06T06:10:55.614Z,63.73
2018-10-06T06:13:24.401Z,63.87
2018-10-06T06:15:53.803Z,64.77
2018-10-06T06:18:22.700Z,61.40
2018-10-06T06:20:51.450Z,72.50
2018-10-06T06:23:20.404Z,64.27
2018-10-06T06:25:50.296Z,66.23
2018-10-06T06:28:19.695Z,61.33
2018-10-06T06:30:57.023Z,62.10
2018-10-06T06:33:27.026Z,69.73
2018-10-06T06:35:56.490Z,63.23
2018-10-06T06:38:26.412Z,62.50
2018-10-06T06:40:55.789Z,62.37
2018-10-06T06:43:24.789Z,63.27
2018-10-06T06:45:54.384Z,59.20
2018-10-06T06:48:24.088Z,59.30
2018-10-06T06:50:53.750Z,60.40
2018-10-06T06:53:22.597Z,53.97
2018-10-06T06:55:52.329Z,56.97
2018-10-06T06:58:22.395Z,57.67
2018-10-06T07:00:53.039Z,52.93
2018-10-06T07:03:21.699Z,54.20
2018-10-06T07:05:50.691Z,49.80
2018-10-06T07:08:19.188Z,48.77
2018-10-06T07:10:48.091Z,45.17
2018-10-06T07:13:17.947Z,43.20
2018-10-06T07:15:46.730Z,40.33
2018-10-06T07:18:15.616Z,40.93
2018-10-06T07:20:44.664Z,39.13
2018-10-06T07:23:13.624Z,43.50
2018-10-06T07:25:42.616Z,37.90
2018-10-06T07:28:11.493Z,37.63
2018-10-06T07:30:40.729Z,37.03
2018-10-06T07:33:09.483Z,35.60
2018-10-06T07:35:38.141Z,33.80
2018-10-06T07:38:06.923Z,35.37
2018-10-06T07:40:35.667Z,33.40
2018-10-06T07:43:04.403Z,30.17
2018-10-06T07:45:33.121Z,33.63
2018-10-06T07:48:01.927Z,30.27
2018-10-06T07:50:32.176Z,29.50
2018-10-06T07:53:01.006Z,32.40
2018-10-06T07:55:32.096Z,29.97
2018-10-06T07:58:01.986Z,30.00
2018-10-06T08:00:32.250Z,27.80
2018-10-06T08:03:01.702Z,28.87
2018-10-06T08:05:30.620Z,26.57
2018-10-06T08:10:33.498Z,25.90
2018-10-06T08:13:02.974Z,25.87
2018-10-06T08:15:31.670Z,23.33
2018-10-06T08:18:01.271Z,22.63
2018-10-06T08:20:30.913Z,25.00
2018-10-06T08:23:00.751Z,23.80
2018-10-06T08:25:29.605Z,20.40
2018-10-06T08:27:58.226Z,19.97
2018-10-06T08:30:27.364Z,19.47
2018-10-06T08:32:56.206Z,19.83
2018-10-06T08:35:26.141Z,17.70
2018-10-06T08:37:56.040Z,17.63
2018-10-06T08:40:25.046Z,21.13
2018-10-06T08:42:54.632Z,17.60
2018-10-06T08:45:23.328Z,16.70
2018-10-06T08:47:52.020Z,17.97
2018-10-06T08:50:22.578Z,18.00
2018-10-06T08:52:52.417Z,15.40
2018-10-06T08:55:21.393Z,15.40
2018-10-06T08:57:50.399Z,15.00
2018-10-06T09:00:19.603Z,14.27
2018-10-06T09:05:21.246Z,15.97
2018-10-06T09:07:51.254Z,16.03
2018-10-06T09:10:20.066Z,15.33
2018-10-06T09:12:51.360Z,14.97
2018-10-06T09:15:20.215Z,13.87
2018-10-06T09:17:48.902Z,15.67
2018-10-06T09:20:17.891Z,13.90
2018-10-06T09:22:46.587Z,18.50
2018-10-06T09:25:16.191Z,13.37
2018-10-06T09:27:44.987Z,15.70
2018-10-06T09:30:13.727Z,13.67
2018-10-06T09:32:42.664Z,14.30
2018-10-06T09:35:11.492Z,15.43
2018-10-06T09:37:40.291Z,14.80
2018-10-06T09:40:09.055Z,15.10
2018-10-06T09:42:37.856Z,14.93
2018-10-06T09:45:06.911Z,14.53
2018-10-06T09:47:35.688Z,13.37
2018-10-06T09:50:04.646Z,13.50
2018-10-06T09:52:34.266Z,14.50
2018-10-06T09:55:03.108Z,13.43
2018-10-06T09:57:31.832Z,13.70
2018-10-06T10:00:00.670Z,13.10
2018-10-06T10:02:35.044Z,14.33
2018-10-06T10:05:10.270Z,14.03
2018-10-06T10:07:39.014Z,12.83
2018-10-06T10:10:07.787Z,14.17
2018-10-06T10:12:36.771Z,13.97
2018-10-06T10:15:05.578Z,14.90
2018-10-06T10:17:34.517Z,12.30
2018-10-06T10:20:05.960Z,13.33
2018-10-06T10:22:35.297Z,14.10
2018-10-06T10:25:04.727Z,15.47
2018-10-06T10:27:35.262Z,13.23
2018-10-06T10:30:05.873Z,13.97
2018-10-06T10:32:34.779Z,14.07
2018-10-06T10:35:03.781Z,14.23
2018-10-06T10:37:34.478Z,13.67
2018-10-06T10:40:04.855Z,14.43
2018-10-06T10:42:34.846Z,13.50
2018-10-06T10:45:04.816Z,15.40
2018-10-06T10:47:34.928Z,14.07
2018-10-06T10:50:05.482Z,15.33
2018-10-06T10:52:34.904Z,15.60
2018-10-06T10:55:04.625Z,14.80
2018-10-06T10:57:33.827Z,15.50
2018-10-06T11:00:02.682Z,14.00
2018-10-06T11:02:31.259Z,14.57
2018-10-06T11:05:00.252Z,14.83
2018-10-06T11:07:30.953Z,15.77
2018-10-06T11:10:02.715Z,15.00
2018-10-06T11:12:32.667Z,15.33
2018-10-06T11:15:03.304Z,16.60
2018-10-06T11:17:36.013Z,15.33
2018-10-06T11:20:05.836Z,15.17
2018-10-06T11:22:35.206Z,16.00
2018-10-06T11:25:05.642Z,15.83
2018-10-06T11:27:35.634Z,16.50
2018-10-06T11:30:04.624Z,15.30
2018-10-06T11:32:33.925Z,15.90
2018-10-06T11:35:04.913Z,16.07
2018-10-06T11:37:33.583Z,15.97
2018-10-06T11:40:03.082Z,16.83
2018-10-06T11:42:31.777Z,16.67
2018-10-06T11:45:00.406Z,17.17
2018-10-06T11:47:31.452Z,16.00
2018-10-06T11:50:01.095Z,16.77
2018-10-06T11:52:32.492Z,14.77
2018-10-06T11:55:03.041Z,14.67
2018-10-06T11:57:31.796Z,14.17
2018-10-06T12:00:04.000Z,15.10
2018-10-06T12:02:33.766Z,15.43
2018-10-06T12:07:38.471Z,16.23
2018-10-06T12:10:08.081Z,15.40
2018-10-06T12:12:37.627Z,16.10
2018-10-06T12:15:07.571Z,15.67
2018-10-06T12:17:37.341Z,15.80
2018-10-06T12:20:07.465Z,15.97
2018-10-06T12:22:37.421Z,16.80
2018-10-06T12:25:06.265Z,17.17
2018-10-06T12:27:34.975Z,17.07
2018-10-06T12:30:04.031Z,17.73
2018-10-06T12:32:33.173Z,18.37
2018-10-06T12:35:04.578Z,17.50
2018-10-06T12:37:33.843Z,17.17
2018-10-06T12:40:04.167Z,17.53
2018-10-06T12:42:33.896Z,17.63
2018-10-06T12:45:09.482Z,18.80
2018-10-06T12:47:38.551Z,17.40
2018-10-06T12:50:07.911Z,17.90
2018-10-06T12:52:38.617Z,18.07
2018-10-06T12:57:40.016Z,21.70
2018-10-06T13:00:09.512Z,17.97
2018-10-06T13:02:38.367Z,17.37
2018-10-06T13:05:07.750Z,15.43
2018-10-06T13:07:36.917Z,16.47
2018-10-06T13:10:05.966Z,15.60
2018-10-06T13:12:34.836Z,15.23
2018-10-06T13:15:04.134Z,15.40
2018-10-06T13:17:32.850Z,15.23
2018-10-06T13:20:01.564Z,17.30
2018-10-06T13:22:29.894Z,15.13
2018-10-06T13:24:58.923Z,15.90
2018-10-06T13:27:27.623Z,15.60
2018-10-06T13:29:58.585Z,15.07
2018-10-06T13:32:27.331Z,14.63
2018-10-06T13:34:56.027Z,15.73
2018-10-06T13:37:24.348Z,14.03
2018-10-06T13:39:53.643Z,15.63
2018-10-06T13:42:22.436Z,16.47
2018-10-06T13:44:51.496Z,15.07
2018-10-06T13:47:20.295Z,15.40
2018-10-06T13:49:48.967Z,14.83
2018-10-06T13:52:17.549Z,15.70
2018-10-06T13:54:47.000Z,15.50
2018-10-06T13:57:15.972Z,15.20
2018-10-06T13:59:44.703Z,15.33
2018-10-06T14:02:13.487Z,14.50
2018-10-06T14:04:42.272Z,17.00
2018-10-06T14:07:11.011Z,15.53
2018-10-06T14:09:40.780Z,15.20
2018-10-06T14:12:09.505Z,15.83
2018-10-06T14:14:38.338Z,15.03
2018-10-06T14:17:14.172Z,13.67
2018-10-06T14:19:43.671Z,13.00
2018-10-06T14:22:13.215Z,12.50
2018-10-06T14:24:42.984Z,13.53
2018-10-06T14:27:11.749Z,13.03
2018-10-06T14:29:41.130Z,12.80
2018-10-06T14:32:09.910Z,13.50
2018-10-06T14:34:38.812Z,13.50
2018-10-06T14:37:07.622Z,11.93
2018-10-06T14:39:36.255Z,12.67
2018-10-06T14:42:05.175Z,14.03
2018-10-06T14:44:34.694Z,12.40
2018-10-06T14:47:03.546Z,14.03
2018-10-06T14:49:33.177Z,14.90
2018-10-06T14:52:02.041Z,16.33
2018-10-06T14:54:33.334Z,22.33
2018-10-06T14:57:02.930Z,17.77
2018-10-06T14:59:32.712Z,22.70
2018-10-06T15:02:03.607Z,22.57
2018-10-06T15:04:33.640Z,92.20
2018-10-06T15:07:05.269Z,35.40
2018-10-06T15:09:34.201Z,39.20
2018-10-06T15:12:03.304Z,23.97
2018-10-06T15:14:32.110Z,20.93
2018-10-06T15:17:00.992Z,21.03
2018-10-06T15:19:31.102Z,18.63
2018-10-06T15:22:00.519Z,21.87
2018-10-06T15:24:31.622Z,22.00
2018-10-06T15:27:00.705Z,19.53
2018-10-06T15:29:29.565Z,20.67
2018-10-06T15:31:58.588Z,20.53
2018-10-06T15:34:27.378Z,29.73
2018-10-06T15:36:56.144Z,41.70
2018-10-06T15:39:25.144Z,65.10
2018-10-06T15:41:53.885Z,23.30
2018-10-06T15:44:22.732Z,21.67
2018-10-06T15:46:54.449Z,23.30
2018-10-06T15:49:23.401Z,24.87
2018-10-06T15:51:52.274Z,22.93
2018-10-06T15:54:20.939Z,23.87
2018-10-06T15:56:49.974Z,25.03
2018-10-06T15:59:18.752Z,21.13
2018-10-06T16:01:47.662Z,24.23
2018-10-06T16:04:16.263Z,20.57
2018-10-06T16:06:44.969Z,21.73
2018-10-06T16:09:13.793Z,20.20
2018-10-06T16:11:42.433Z,19.93
2018-10-06T16:14:11.075Z,19.40
2018-10-06T16:16:39.846Z,18.87
2018-10-06T16:19:08.496Z,22.03
2018-10-06T16:21:37.096Z,18.60
2018-10-06T16:24:05.884Z,17.70
2018-10-06T16:26:34.562Z,18.70
2018-10-06T16:29:03.112Z,17.70
2018-10-06T16:31:31.927Z,17.83
2018-10-06T16:34:00.496Z,18.60
2018-10-06T16:36:29.039Z,18.23
2018-10-06T16:38:58.304Z,19.23
2018-10-06T16:41:27.065Z,18.47
2018-10-06T16:43:55.868Z,18.70
2018-10-06T16:46:24.845Z,18.10
2018-10-06T16:48:53.583Z,19.67
2018-10-06T16:51:22.235Z,21.40
2018-10-06T16:53:51.108Z,20.10
2018-10-06T16:56:19.855Z,21.77
2018-10-06T16:58:48.611Z,18.63
2018-10-06T17:01:17.494Z,22.10
2018-10-06T17:03:46.655Z,21.40
2018-10-06T17:06:15.393Z,20.00
2018-10-06T17:08:44.157Z,22.73
2018-10-06T17:11:13.331Z,20.93
2018-10-06T17:13:42.234Z,17.50
2018-10-06T17:16:11.056Z,16.97
2018-10-06T17:18:41.093Z,16.47
2018-10-06T17:21:12.415Z,17.67
2018-10-06T17:23:42.353Z,15.23
2018-10-06T17:26:11.380Z,16.93
2018-10-06T17:28:40.001Z,15.17
2018-10-06T17:31:09.751Z,17.00
2018-10-06T17:33:39.608Z,16.33
2018-10-06T17:36:08.517Z,17.57
2018-10-06T17:38:38.520Z,17.20
2018-10-06T17:41:07.617Z,17.57
2018-10-06T17:43:40.036Z,17.97
2018-10-06T17:46:09.761Z,24.53
2018-10-06T17:48:39.035Z,20.00
2018-10-06T17:51:08.715Z,21.13
2018-10-06T17:53:38.071Z,21.63
2018-10-06T17:56:08.056Z,21.53
2018-10-06T17:58:36.940Z,21.33
2018-10-06T18:01:05.914Z,23.77
2018-10-06T18:03:35.651Z,26.77
2018-10-06T18:06:04.455Z,23.00
2018-10-06T18:08:33.439Z,25.00
2018-10-06T18:11:02.292Z,26.90
2018-10-06T18:13:32.287Z,25.67
2018-10-06T18:16:02.607Z,29.60
2018-10-06T18:18:32.321Z,26.03
2018-10-06T18:21:02.124Z,25.83
2018-10-06T18:23:31.362Z,27.07
2018-10-06T18:26:00.265Z,28.17
2018-10-06T18:28:29.094Z,30.00
2018-10-06T18:30:58.536Z,28.60
2018-10-06T18:33:28.162Z,30.40
2018-10-06T18:35:57.408Z,31.07
2018-10-06T18:38:26.184Z,30.57
2018-10-06T18:40:55.214Z,31.73
2018-10-06T18:43:25.488Z,32.00
2018-10-06T18:45:54.425Z,33.90
2018-10-06T18:48:23.128Z,35.13
2018-10-06T18:50:52.067Z,39.97
2018-10-06T18:53:20.930Z,40.40
2018-10-06T18:55:49.558Z,39.43
2018-10-06T18:58:18.514Z,41.60
2018-10-06T19:00:47.225Z,42.80
2018-10-06T19:03:16.867Z,42.17
2018-10-06T19:05:45.902Z,41.63
2018-10-06T19:08:15.548Z,42.00
2018-10-06T19:10:44.772Z,47.77
2018-10-06T19:13:14.292Z,51.97
2018-10-06T19:15:44.239Z,49.43
2018-10-06T19:18:13.974Z,52.50
2018-10-06T19:20:42.769Z,53.80
2018-10-06T19:23:12.058Z,51.77
2018-10-06T19:25:41.876Z,58.47
2018-10-06T19:28:10.694Z,60.30
2018-10-06T19:30:40.194Z,59.97
2018-10-06T19:33:09.090Z,65.30
2018-10-06T19:35:38.043Z,66.13
2018-10-06T19:38:06.810Z,68.50
2018-10-06T19:40:36.320Z,67.23
2018-10-06T19:43:05.168Z,65.83
2018-10-06T19:45:35.502Z,65.20
2018-10-06T19:48:04.324Z,66.13
2018-10-06T19:50:33.036Z,70.20
2018-10-06T19:53:01.902Z,61.83
2018-10-06T19:55:30.682Z,70.27
2018-10-06T19:57:59.413Z,71.50
2018-10-06T20:00:28.144Z,73.23
2018-10-06T20:02:56.712Z,70.97
2018-10-06T20:05:25.356Z,68.27
2018-10-06T20:07:53.964Z,66.70
2018-10-06T20:10:22.928Z,71.40
2018-10-06T20:12:53.785Z,70.07
2018-10-06T20:15:22.477Z,73.47
2018-10-06T20:17:52.391Z,73.77
2018-10-06T20:20:21.785Z,71.73
2018-10-06T20:22:50.130Z,76.90
2018-10-06T20:25:18.814Z,78.70
2018-10-06T20:27:47.971Z,89.17
2018-10-06T20:30:16.680Z,78.93
2018-10-06T20:32:45.393Z,83.00
2018-10-06T20:35:14.052Z,84.17
2018-10-06T20:37:42.835Z,87.37
2018-10-06T20:40:11.873Z,80.97
2018-10-06T20:42:40.723Z,90.83
2018-10-06T20:45:09.659Z,93.33
2018-10-06T20:47:38.425Z,90.67
2018-10-06T20:50:07.463Z,98.93
2018-10-06T20:52:35.847Z,95.47
2018-10-06T20:55:04.756Z,95.40
2018-10-06T20:57:33.766Z,91.00
2018-10-06T21:00:02.913Z,84.70
2018-10-06T21:02:32.038Z,94.67
2018-10-06T21:05:00.976Z,91.37
2018-10-06T21:07:29.619Z,97.47
2018-10-06T21:09:59.043Z,92.40
2018-10-06T21:12:28.087Z,95.43
2018-10-06T21:14:57.203Z,94.57
2018-10-06T21:17:26.283Z,100.07
2018-10-06T21:19:55.493Z,97.80
2018-10-06T21:22:23.947Z,101.73
2018-10-06T21:24:53.426Z,94.10
2018-10-06T21:27:22.234Z,90.83
2018-10-06T21:29:51.220Z,94.83
2018-10-06T21:32:20.299Z,97.93
2018-10-06T21:34:49.212Z,108.73
2018-10-06T21:37:17.726Z,90.30
2018-10-06T21:39:47.307Z,87.00
2018-10-06T21:42:16.212Z,88.23
2018-10-06T21:44:45.453Z,68.03
2018-10-06T21:47:14.283Z,70.20
2018-10-06T21:49:43.707Z,74.83
2018-10-06T21:52:12.232Z,74.67
2018-10-06T21:54:41.202Z,62.50
2018-10-06T21:57:10.570Z,56.83
2018-10-06T21:59:39.313Z,54.00
2018-10-06T22:02:08.082Z,55.60
2018-10-06T22:04:37.172Z,46.57
2018-10-06T22:07:05.779Z,46.50
2018-10-06T22:09:34.715Z,45.73
2018-10-06T22:12:03.528Z,40.60
2018-10-06T22:14:32.567Z,32.80
2018-10-06T22:17:02.262Z,32.27
2018-10-06T22:19:31.114Z,27.27
2018-10-06T22:21:59.620Z,24.20
2018-10-06T22:24:28.589Z,20.00
2018-10-06T22:26:57.565Z,22.03
2018-10-06T22:29:26.400Z,18.80
2018-10-06T22:31:55.126Z,19.60
2018-10-06T22:34:23.818Z,17.00
2018-10-06T22:36:52.423Z,21.87
2018-10-06T22:39:21.483Z,16.30
2018-10-06T22:41:50.569Z,22.13
2018-10-06T22:44:19.551Z,18.60
2018-10-06T22:46:48.359Z,19.20
2018-10-06T22:49:17.439Z,14.50
2018-10-06T22:51:45.994Z,15.63
2018-10-06T22:54:15.057Z,14.00
2018-10-06T22:56:44.155Z,13.93
2018-10-06T22:59:13.008Z,11.17
2018-10-06T23:01:42.637Z,15.27
2018-10-06T23:04:11.601Z,10.90
2018-10-06T23:06:40.118Z,14.13
2018-10-06T23:09:10.415Z,10.90
2018-10-06T23:11:39.405Z,12.67
2018-10-06T23:14:08.555Z,10.47
2018-10-06T23:16:37.704Z,6.90
2018-10-06T23:19:06.741Z,7.50
2018-10-06T23:21:37.018Z,8.30
2018-10-06T23:24:05.960Z,7.30
2018-10-06T23:26:34.869Z,6.03
2018-10-06T23:29:03.692Z,6.00
2018-10-06T23:31:32.701Z,4.80
2018-10-06T23:34:01.850Z,7.20
2018-10-06T23:36:30.928Z,4.13
2018-10-06T23:38:59.608Z,4.87
2018-10-06T23:41:28.722Z,5.17
2018-10-06T23:43:58.249Z,3.93
2018-10-06T23:46:27.085Z,5.40
2018-10-06T23:48:55.925Z,3.60
2018-10-06T23:51:25.061Z,9.07
2018-10-06T23:53:53.823Z,3.83
2018-10-06T23:56:22.803Z,3.53
2018-10-06T23:58:52.429Z,6.30
